Messwerte Mervelier

Temperatur

Temperatur
°C
1573880400 6.00 6.00 -0.7
1573884000 7.00 7.00 -1.5
1573887600 8.00 8.00 -1.8
1573891200 9.00 9.00 -1.1
1573894800 10.00 10.00 -0.3
1573898400 11.00 11.00 2.1
1573902000 12.00 12.00 4.5
1573905600 13.00 13.00 6.2
1573909200 14.00 14.00 7.1
1573912800 15.00 15.00 7.3
1573916400 16.00 16.00
1573920000 17.00 17.00
1573923600 18.00 18.00
1573927200 19.00 19.00
1573930800 20.00 20.00
1573934400 21.00 21.00
1573938000 22.00 22.00
1573941600 23.00 23.00
1573945200 0.00 0.00
1573948800 1.00 1.00 -0.9
1573952400 2.00 2.00 -0.9
1573956000 3.00 3.00 -0.5
1573959600 4.00 4.00 0.0
1573963200 5.00 5.00 0.2

Wir danken unserem Partner: Radio Fréquence Jura

Aktuellste Messwerte

Temperatur
0.2 °C
Feuchtigkeit
94 %
Wind
0 km/hWindrichtung: Nord
Böen
0 km/h
Niederschlag
0.0 mm
Luftdruck
1009.8 hPa
Globalstrahlung
0 W/m²
Messzeit: 17. November 2019, 5.00Datenquelle: MeteoNews Partner, Radio Fréquence Jura

Weitere Messstationen in der Nähe

Messstation Temperatur Entfernung
Bärschwil 0.5 °C 5 km
Welschenrohr 0.1 °C 7 km
Breitenbach 0.2 °C 9 km
Balmberg 0.1 °C 9 km
Rossemaison - 11 km
Delsberg -0.3 °C 12 km
Hubersdorf 0.7 °C 13 km

Niederschlag

Niederschlagsmenge
mm
1573880400 6.00 5.00 - 6.00 0.0
1573884000 7.00 6.00 - 7.00 0.0
1573887600 8.00 7.00 - 8.00 0.0
1573891200 9.00 8.00 - 9.00 0.0
1573894800 10.00 9.00 - 10.00 0.0
1573898400 11.00 10.00 - 11.00 0.0
1573902000 12.00 11.00 - 12.00 0.0
1573905600 13.00 12.00 - 13.00 0.0
1573909200 14.00 13.00 - 14.00 0.0
1573912800 15.00 14.00 - 15.00
1573916400 16.00 15.00 - 16.00
1573920000 17.00 16.00 - 17.00
1573923600 18.00 17.00 - 18.00
1573927200 19.00 18.00 - 19.00
1573930800 20.00 19.00 - 20.00
1573934400 21.00 20.00 - 21.00
1573938000 22.00 21.00 - 22.00
1573941600 23.00 22.00 - 23.00
1573945200 0.00 23.00 - 0.00
1573948800 1.00 0.00 - 1.00
1573952400 2.00 1.00 - 2.00 0.0
1573956000 3.00 2.00 - 3.00 0.0
1573959600 4.00 3.00 - 4.00 0.0
1573963200 5.00 4.00 - 5.00 0.0

Wind

Windrichtung Böen Mittelwind
° km/h km/h
1573880400 6.00 5.00 - 6.00 umlaufend 0 0
1573884000 7.00 6.00 - 7.00 umlaufend 0 0
1573887600 8.00 7.00 - 8.00 umlaufend 0 0
1573891200 9.00 8.00 - 9.00 umlaufend 0 0
1573894800 10.00 9.00 - 10.00 umlaufend 0 0
1573898400 11.00 10.00 - 11.00 umlaufend 0 0
1573902000 12.00 11.00 - 12.00 umlaufend 0 0
1573905600 13.00 12.00 - 13.00 umlaufend 0 0
1573909200 14.00 13.00 - 14.00 umlaufend 0 0
1573912800 15.00 14.00 - 15.00 umlaufend 0 0
1573916400 16.00 15.00 - 16.00
1573920000 17.00 16.00 - 17.00
1573923600 18.00 17.00 - 18.00
1573927200 19.00 18.00 - 19.00
1573930800 20.00 19.00 - 20.00
1573934400 21.00 20.00 - 21.00
1573938000 22.00 21.00 - 22.00
1573941600 23.00 22.00 - 23.00
1573945200 0.00 23.00 - 0.00
1573948800 1.00 0.00 - 1.00 umlaufend 0 0
1573952400 2.00 1.00 - 2.00 umlaufend 0 0
1573956000 3.00 2.00 - 3.00 umlaufend 0 0
1573959600 4.00 3.00 - 4.00 umlaufend 0 0
1573963200 5.00 4.00 - 5.00 umlaufend 0 0

Ihre Wetterstation

Fehlt Ihre Wetterstation auf unserem Portal?

Schreiben Sie an network@meteonews.ch

Klima

Wann ist es am wärmsten? Wann regnet es am wenigsten? Unsere Klimadaten geben Auskunft.